createdAt,value
2019-01-22T00:05:58.520Z,96.50
2019-01-22T00:12:01.303Z,94.80
2019-01-22T00:18:03.676Z,95.00
2019-01-22T00:24:06.099Z,96.10
2019-01-22T00:30:11.924Z,95.60
2019-01-22T00:36:14.458Z,96.50
2019-01-22T00:42:16.866Z,97.40
2019-01-22T00:48:19.098Z,96.90
2019-01-22T00:54:21.343Z,97.50
2019-01-22T01:00:28.842Z,96.70
2019-01-22T01:06:31.075Z,97.00
2019-01-22T01:12:33.368Z,97.00
2019-01-22T01:18:35.654Z,86.60
2019-01-22T01:24:37.871Z,86.80
2019-01-22T01:30:40.306Z,86.80
2019-01-22T01:36:42.906Z,86.80
2019-01-22T01:42:45.841Z,86.30
2019-01-22T01:48:47.993Z,86.00
2019-01-22T01:54:52.067Z,86.40
2019-01-22T02:00:54.447Z,86.30
2019-01-22T02:06:57.155Z,87.00
2019-01-22T02:13:12.142Z,86.80
2019-01-22T02:19:33.586Z,87.20
2019-01-22T02:26:09.773Z,86.90
2019-01-22T02:33:18.387Z,86.60
2019-01-22T02:39:46.513Z,86.40
2019-01-22T02:46:26.918Z,86.50
2019-01-22T02:53:15.008Z,86.40
2019-01-22T02:59:51.893Z,86.80
2019-01-22T03:06:27.113Z,87.10
2019-01-22T03:12:40.550Z,87.10
2019-01-22T03:19:22.476Z,87.00
2019-01-22T03:25:53.404Z,86.70
2019-01-22T03:32:39.251Z,86.20
2019-01-22T03:39:17.212Z,86.10
2019-01-22T03:45:50.466Z,85.90
2019-01-22T03:52:24.012Z,85.30
2019-01-22T03:58:26.307Z,85.90
2019-01-22T04:04:28.570Z,85.60
2019-01-22T04:10:37.286Z,86.00
2019-01-22T04:16:39.758Z,87.10
2019-01-22T04:22:58.339Z,87.80
2019-01-22T04:29:28.250Z,88.30
2019-01-22T04:35:54.067Z,88.60
2019-01-22T04:42:41.030Z,88.30
2019-01-22T04:49:52.443Z,87.90
2019-01-22T04:56:42.838Z,87.60
2019-01-22T05:03:10.878Z,87.30
2019-01-22T05:10:15.282Z,86.70
2019-01-22T05:17:02.779Z,86.20
2019-01-22T05:23:58.228Z,86.40
2019-01-22T05:30:44.250Z,86.40
2019-01-22T05:37:15.054Z,87.00
2019-01-22T05:43:57.660Z,87.90
2019-01-22T05:50:37.841Z,88.40
2019-01-22T05:57:07.374Z,88.40
2019-01-22T06:03:39.275Z,88.30
2019-01-22T06:10:23.367Z,88.10
2019-01-22T06:17:19.085Z,88.40
2019-01-22T06:24:01.993Z,88.50
2019-01-22T06:30:42.424Z,89.30
2019-01-22T06:37:09.729Z,88.90
2019-01-22T06:43:46.734Z,87.70
2019-01-22T06:50:34.472Z,87.70
2019-01-22T06:57:05.070Z,87.30
2019-01-22T07:03:55.338Z,86.80
2019-01-22T07:10:10.630Z,86.50
2019-01-22T07:16:51.911Z,86.50
2019-01-22T07:23:51.398Z,86.60
2019-01-22T07:30:35.716Z,86.70
2019-01-22T07:37:08.363Z,87.60
2019-01-22T07:43:52.514Z,88.00
2019-01-22T07:50:31.733Z,88.20
2019-01-22T07:57:13.627Z,88.90
2019-01-22T08:03:51.573Z,89.20
2019-01-22T08:10:43.909Z,89.10
2019-01-22T08:17:37.075Z,90.10
2019-01-22T08:24:10.963Z,90.00
2019-01-22T08:30:49.811Z,89.80
2019-01-22T08:37:25.292Z,90.00
2019-01-22T08:44:08.951Z,89.80
2019-01-22T08:50:39.374Z,89.90
2019-01-22T08:56:58.042Z,89.80
2019-01-22T09:03:30.495Z,90.00
2019-01-22T09:09:52.301Z,90.10
2019-01-22T09:16:47.489Z,90.40
2019-01-22T09:23:38.241Z,90.10
2019-01-22T09:29:57.127Z,90.00
2019-01-22T09:36:31.336Z,90.70
2019-01-22T09:42:33.582Z,90.50
2019-01-22T09:48:37.395Z,90.60
2019-01-22T09:54:39.775Z,90.70
2019-01-22T10:00:41.947Z,90.90
2019-01-22T10:06:44.410Z,91.20
2019-01-22T10:12:48.265Z,91.10
2019-01-22T10:18:51.755Z,91.00
2019-01-22T10:24:54.159Z,90.80
2019-01-22T10:30:56.917Z,90.90
2019-01-22T10:36:59.269Z,91.10
2019-01-22T10:43:01.683Z,90.60
2019-01-22T10:49:04.348Z,91.10
2019-01-22T10:55:08.371Z,90.70
2019-01-22T11:01:11.219Z,90.80
2019-01-22T11:07:14.960Z,90.90
2019-01-22T11:13:17.184Z,90.40
2019-01-22T11:19:19.428Z,90.30
2019-01-22T11:25:22.331Z,90.60
2019-01-22T11:31:29.509Z,90.70
2019-01-22T11:37:31.770Z,90.20
2019-01-22T11:43:34.366Z,90.30
2019-01-22T11:49:37.778Z,90.30
2019-01-22T11:55:40.071Z,89.40
2019-01-22T12:01:42.996Z,89.50
2019-01-22T12:07:45.882Z,90.00
2019-01-22T12:13:53.980Z,89.70
2019-01-22T12:19:52.295Z,89.00
2019-01-22T12:25:57.378Z,88.70
2019-01-22T12:32:02.125Z,89.20
2019-01-22T12:38:04.727Z,89.10
2019-01-22T12:44:06.844Z,88.50
2019-01-22T12:50:10.719Z,88.20
2019-01-22T12:56:12.995Z,87.40
2019-01-22T13:02:15.488Z,87.30
2019-01-22T13:08:17.600Z,86.90
2019-01-22T13:14:20.327Z,86.80
2019-01-22T13:20:22.718Z,87.60
2019-01-22T13:26:25.091Z,85.40
2019-01-22T13:32:27.401Z,85.00
2019-01-22T13:38:30.199Z,83.40
2019-01-22T13:44:32.287Z,84.00
2019-01-22T13:50:35.819Z,83.90
2019-01-22T13:56:38.054Z,84.30
2019-01-22T14:02:40.290Z,84.50
2019-01-22T14:08:43.707Z,84.00
2019-01-22T14:14:45.946Z,83.60
2019-01-22T14:20:49.543Z,83.20
2019-01-22T14:26:51.839Z,82.90
2019-01-22T14:32:54.188Z,83.10
2019-01-22T14:38:56.638Z,83.50
2019-01-22T14:44:58.751Z,83.40
2019-01-22T14:51:01.567Z,84.20
2019-01-22T14:57:03.754Z,84.70
2019-01-22T15:03:05.959Z,85.50
2019-01-22T15:09:08.276Z,84.40
2019-01-22T15:15:12.650Z,84.50
2019-01-22T15:21:15.107Z,84.60
2019-01-22T15:27:36.693Z,84.10
2019-01-22T15:33:39.016Z,84.90
2019-01-22T15:39:44.714Z,84.90
2019-01-22T15:45:48.031Z,84.80
2019-01-22T15:51:53.375Z,84.90
2019-01-22T15:57:56.829Z,85.30
2019-01-22T16:04:00.066Z,85.10
2019-01-22T16:10:04.683Z,85.10
2019-01-22T16:16:08.654Z,85.40
2019-01-22T16:22:12.160Z,85.30
2019-01-22T16:28:14.346Z,85.70
2019-01-22T16:34:16.786Z,85.30
2019-01-22T16:40:21.074Z,85.70
2019-01-22T16:46:23.475Z,85.70
2019-01-22T16:52:25.725Z,85.50
2019-01-22T16:58:29.306Z,86.00
2019-01-22T17:04:31.724Z,86.10
2019-01-22T17:10:53.415Z,86.40
2019-01-22T17:16:55.674Z,86.20
2019-01-22T17:23:01.917Z,86.00
2019-01-22T17:29:02.163Z,86.20
2019-01-22T17:35:05.725Z,86.20
2019-01-22T17:41:11.393Z,86.20
2019-01-22T17:47:14.070Z,86.40
2019-01-22T17:53:16.351Z,86.70
2019-01-22T17:59:19.045Z,86.50
2019-01-22T18:05:21.420Z,87.00
2019-01-22T18:11:23.632Z,86.80
2019-01-22T18:17:25.984Z,86.50
2019-01-22T18:23:30.591Z,86.40
2019-01-22T18:29:32.926Z,86.50
2019-01-22T18:35:38.389Z,86.50
2019-01-22T18:41:42.882Z,86.50
2019-01-22T18:47:46.233Z,86.20
2019-01-22T18:53:48.470Z,86.50
2019-01-22T18:59:50.904Z,86.50
2019-01-22T19:05:53.745Z,86.40
2019-01-22T19:11:55.972Z,86.50
2019-01-22T19:17:58.400Z,86.30
2019-01-22T19:24:01.698Z,86.50
2019-01-22T19:30:08.062Z,86.50
2019-01-22T19:36:10.231Z,86.30
2019-01-22T19:42:14.387Z,86.20
2019-01-22T19:48:16.991Z,86.00
2019-01-22T19:54:19.497Z,86.20
2019-01-22T20:00:27.138Z,86.40
2019-01-22T20:06:29.467Z,86.60
2019-01-22T20:12:31.667Z,87.60
2019-01-22T20:18:34.143Z,87.00
2019-01-22T20:24:36.641Z,87.00
2019-01-22T20:30:39.835Z,86.80
2019-01-22T20:36:43.678Z,86.70
2019-01-22T20:42:48.243Z,87.10
2019-01-22T20:48:50.767Z,87.10
2019-01-22T20:54:53.565Z,86.50
2019-01-22T21:00:55.850Z,86.90
2019-01-22T21:06:58.552Z,87.10
2019-01-22T21:13:01.804Z,87.50
2019-01-22T21:19:04.055Z,87.30
2019-01-22T21:25:25.830Z,87.70
2019-01-22T21:31:28.207Z,87.90
2019-01-22T21:37:30.563Z,87.60
2019-01-22T21:43:35.519Z,87.60
2019-01-22T21:49:37.832Z,87.50
2019-01-22T21:55:40.124Z,87.40
2019-01-22T22:01:42.471Z,87.60
2019-01-22T22:07:44.638Z,88.10
2019-01-22T22:13:47.190Z,87.60
2019-01-22T22:19:50.563Z,87.90
2019-01-22T22:25:52.983Z,87.60
2019-01-22T22:31:55.286Z,87.80
2019-01-22T22:37:57.514Z,87.80
2019-01-22T22:44:01.258Z,87.50
2019-01-22T22:50:05.585Z,88.90
2019-01-22T22:56:07.739Z,89.00
2019-01-22T23:02:11.096Z,88.40
2019-01-22T23:08:13.258Z,87.90
2019-01-22T23:14:15.472Z,88.10
2019-01-22T23:20:17.752Z,88.20
2019-01-22T23:26:19.882Z,88.10
2019-01-22T23:32:22.156Z,87.60
2019-01-22T23:38:24.339Z,87.80
2019-01-22T23:44:26.746Z,87.40
2019-01-22T23:50:50.167Z,87.50
2019-01-22T23:56:52.434Z,86.80
